Adak Island, Alaska
Current Conditions -  °F | °C
As of 10:16 PM on Saturday 25 Oct 2014 (Local Time) from PADK Reporting Station
Overcast Overcast  
Wind Chill: 41°   Ceiling: 4700
Heat Index: 46°   Visibility: 8mi
Dew Point: 37°   Wind: 13mph
Humidity: 71%   Direction: 230°SW
Pressure: 30.02"   Gusts: NA
Location:  51.88°N, 176.65°W
Report Text: PADK 260716Z AUTO 23011KT 8SM OVC047 08/03 A3002 RMK AO1
Loading
Personal Weather Stations






























Interactive Weather Map
Tropical Storm Tracking
New forecast layout! Learn more

10-Day Weather Forecast

Advertisements
Track Severe Weather on mobile